Time;durP1;ratioP1;P1;durP2;ratioP2;P2;SDS_P1;SDS_P2;PMS_P1;PMS_P2;Temp;Humidity;BMP_temperature;BMP_pressure;BME280_temperature;BME280_humidity;BME280_pressure;Samples;Min_cycle;Max_cycle;Signal;HPM_P1;HPM_P2
2023/08/02 00:01:12;;;;;;;9.00;2.75;;;17.00;99.90;;;;;;5051248;28;20489;-50
2023/08/02 00:03:37;;;;;;;3.60;2.40;;;17.00;99.90;;;;;;5052531;28;20024;-52
2023/08/02 00:06:03;;;;;;;5.15;2.42;;;17.10;99.90;;;;;;5052375;28;20404;-50
2023/08/02 00:08:29;;;;;;;4.35;2.53;;;17.10;99.90;;;;;;5052164;28;20049;-54
2023/08/02 00:10:54;;;;;;;5.78;2.53;;;17.10;99.90;;;;;;5051221;28;20116;-50
2023/08/02 00:13:20;;;;;;;5.85;2.90;;;17.20;99.90;;;;;;5052444;28;20096;-53
2023/08/02 00:15:45;;;;;;;3.40;2.35;;;17.20;99.90;;;;;;5053788;28;20104;-56
2023/08/02 00:18:11;;;;;;;12.65;2.80;;;17.20;99.90;;;;;;5053267;28;20415;-57
2023/08/02 00:20:37;;;;;;;8.55;3.03;;;17.30;99.90;;;;;;5053665;28;20021;-55
2023/08/02 00:23:03;;;;;;;9.75;3.03;;;17.30;99.90;;;;;;5052942;28;20040;-51
2023/08/02 00:25:29;;;;;;;4.90;2.97;;;17.30;99.90;;;;;;5052108;28;20480;-53
2023/08/02 00:27:55;;;;;;;5.90;3.33;;;17.30;99.90;;;;;;5051735;28;20461;-52
2023/08/02 00:30:21;;;;;;;6.13;2.65;;;17.30;99.90;;;;;;5051758;28;20028;-51
2023/08/02 00:32:47;;;;;;;6.18;2.42;;;17.30;99.90;;;;;;5051998;28;20025;-51
2023/08/02 00:35:13;;;;;;;4.82;2.72;;;17.30;99.90;;;;;;5050497;28;20031;-54
2023/08/02 00:37:40;;;;;;;7.88;2.03;;;17.30;99.90;;;;;;5051845;28;20025;-54
2023/08/02 00:40:06;;;;;;;10.05;2.75;;;17.20;99.90;;;;;;5051725;28;20039;-52
2023/08/02 00:42:31;;;;;;;3.63;2.42;;;17.20;99.90;;;;;;5051948;28;20265;-50
2023/08/02 00:44:57;;;;;;;9.05;3.17;;;17.30;99.90;;;;;;5051806;28;20107;-50
2023/08/02 00:47:24;;;;;;;4.93;2.90;;;17.30;99.90;;;;;;5050410;28;20505;-50
2023/08/02 00:49:50;;;;;;;5.35;2.72;;;17.30;99.90;;;;;;5051511;28;20037;-51
2023/08/02 00:52:16;;;;;;;5.85;2.20;;;17.30;99.90;;;;;;5051322;28;20399;-50
2023/08/02 00:54:42;;;;;;;4.60;2.28;;;17.30;99.90;;;;;;5050230;28;20032;-53
2023/08/02 00:57:08;;;;;;;7.78;2.58;;;17.30;99.90;;;;;;5051506;28;20048;-51
2023/08/02 00:59:37;;;;;;;8.30;3.00;;;17.30;99.90;;;;;;5050019;28;20490;-53
2023/08/02 01:02:03;;;;;;;5.40;2.55;;;17.20;99.90;;;;;;5051313;28;20029;-55
2023/08/02 01:04:29;;;;;;;4.75;2.33;;;17.20;99.90;;;;;;5051467;28;20155;-51
2023/08/02 01:07:18;;;;;;;3.65;2.40;;;17.20;99.90;;;;;;5050119;28;20029;-54
2023/08/02 01:09:54;;;;;;;10.27;2.35;;;17.20;99.90;;;;;;5051324;28;20036;-52
2023/08/02 01:12:23;;;;;;;5.43;2.58;;;17.20;99.90;;;;;;5051289;28;20053;-50
2023/08/02 01:14:54;;;;;;;5.18;2.50;;;17.20;99.90;;;;;;5051299;28;20017;-51
2023/08/02 01:17:20;;;;;;;6.72;2.70;;;17.20;99.90;;;;;;5049994;28;20037;-55
2023/08/02 01:19:47;;;;;;;6.75;2.42;;;17.20;99.90;;;;;;5050334;28;20550;-53
2023/08/02 01:22:13;;;;;;;4.72;2.30;;;17.20;99.90;;;;;;5050579;28;20059;-55
2023/08/02 01:24:38;;;;;;;8.25;2.22;;;17.20;99.90;;;;;;5052678;28;20472;-55
2023/08/02 01:27:14;;;;;;;7.13;2.95;;;17.20;99.90;;;;;;5054245;28;20024;-51
2023/08/02 01:29:43;;;;;;;;;;;17.20;99.90;;;;;;5055710;28;20404;-55
2023/08/02 01:32:10;;;;;;;5.22;2.65;;;17.20;99.90;;;;;;5055533;28;20287;-54
2023/08/02 01:34:36;;;;;;;3.60;2.17;;;17.20;99.90;;;;;;5054897;28;20036;-53
2023/08/02 01:37:02;;;;;;;7.03;2.53;;;17.30;99.90;;;;;;5055382;28;20032;-54
2023/08/02 01:39:28;;;;;;;6.30;2.15;;;17.30;99.90;;;;;;5055285;28;20400;-53
2023/08/02 01:41:53;;;;;;;4.15;2.33;;;17.30;99.90;;;;;;5055453;28;20043;-50
2023/08/02 01:44:19;;;;;;;3.92;2.47;;;17.40;99.90;;;;;;5055022;28;20037;-53
2023/08/02 01:46:44;;;;;;;3.58;2.22;;;17.40;99.90;;;;;;5055021;28;20029;-51
2023/08/02 01:49:10;;;;;;;8.27;2.75;;;17.50;99.90;;;;;;5054744;28;20025;-50
2023/08/02 01:51:35;;;;;;;4.22;2.20;;;17.50;99.90;;;;;;5053489;28;20056;-51
2023/08/02 01:54:01;;;;;;;3.95;2.50;;;17.50;99.90;;;;;;5055023;28;20066;-52
2023/08/02 01:56:26;;;;;;;4.68;2.10;;;17.50;99.90;;;;;;5055162;28;20512;-55
2023/08/02 01:58:51;;;;;;;4.03;2.40;;;17.50;99.90;;;;;;5054429;28;20025;-52
2023/08/02 02:01:17;;;;;;;9.55;4.20;;;17.50;99.90;;;;;;5055100;28;20036;-50
2023/08/02 02:03:42;;;;;;;5.47;2.10;;;17.50;99.90;;;;;;5053679;28;20025;-55
2023/08/02 02:06:08;;;;;;;3.63;2.75;;;17.50;99.90;;;;;;5054341;28;20029;-52
2023/08/02 02:08:34;;;;;;;4.60;2.30;;;17.50;99.90;;;;;;5054366;28;20497;-56
2023/08/02 02:10:59;;;;;;;9.25;2.50;;;17.40;99.90;;;;;;5054558;28;20029;-49
2023/08/02 02:13:25;;;;;;;7.10;2.88;;;17.40;99.90;;;;;;5054462;28;20017;-57
2023/08/02 02:15:51;;;;;;;6.05;2.47;;;17.30;99.90;;;;;;5054547;28;20504;-55
2023/08/02 02:18:16;;;;;;;5.32;2.40;;;17.30;99.90;;;;;;5054010;28;20063;-55
2023/08/02 02:20:42;;;;;;;4.55;2.38;;;17.30;99.90;;;;;;5054451;28;20110;-54
2023/08/02 02:23:08;;;;;;;5.88;2.10;;;17.20;99.90;;;;;;5054420;28;20040;-55
2023/08/02 02:25:33;;;;;;;8.38;2.90;;;17.20;99.90;;;;;;5054354;28;20168;-56
2023/08/02 02:27:59;;;;;;;4.63;2.58;;;17.20;99.90;;;;;;5054348;28;20094;-54
2023/08/02 02:30:24;;;;;;;3.40;2.58;;;17.10;99.90;;;;;;5054083;28;20029;-56
2023/08/02 02:32:50;;;;;;;3.58;2.30;;;17.10;99.90;;;;;;5054487;28;20053;-53
2023/08/02 02:35:16;;;;;;;6.00;2.10;;;17.00;99.90;;;;;;5052307;28;20021;-56
2023/08/02 02:37:41;;;;;;;6.60;2.40;;;17.00;99.90;;;;;;5053876;28;20109;-55
2023/08/02 02:40:08;;;;;;;2.95;2.10;;;17.00;99.90;;;;;;5053550;28;20039;-55
2023/08/02 02:42:34;;;;;;;8.05;2.67;;;16.90;99.90;;;;;;5053910;28;20033;-57
2023/08/02 02:45:00;;;;;;;7.28;2.97;;;16.90;99.90;;;;;;5054040;28;20393;-55
2023/08/02 02:47:26;;;;;;;7.10;2.75;;;16.80;99.90;;;;;;5053748;28;20021;-54
2023/08/02 02:49:51;;;;;;;7.30;2.45;;;16.80;99.90;;;;;;5053675;28;20527;-56
2023/08/02 02:52:17;;;;;;;4.95;2.42;;;16.70;99.90;;;;;;5052181;28;20044;-56
2023/08/02 02:54:42;;;;;;;8.80;2.85;;;16.70;99.90;;;;;;5053717;28;20032;-54
2023/08/02 02:57:08;;;;;;;5.95;2.40;;;16.70;99.90;;;;;;5053923;28;20393;-53
2023/08/02 02:59:33;;;;;;;6.45;2.60;;;16.70;99.90;;;;;;5053500;28;20053;-56
2023/08/02 03:01:59;;;;;;;5.40;2.35;;;16.70;99.90;;;;;;5054383;28;20035;-56
2023/08/02 03:04:25;;;;;;;6.40;2.20;;;16.70;99.90;;;;;;5053947;28;20033;-55
2023/08/02 03:06:52;;;;;;;3.08;1.85;;;16.70;99.90;;;;;;5053493;28;20033;-54
2023/08/02 03:09:17;;;;;;;3.38;2.10;;;16.60;99.90;;;;;;5053070;28;20032;-50
2023/08/02 03:11:43;;;;;;;5.35;2.35;;;16.60;99.90;;;;;;5053351;28;20039;-53
2023/08/02 03:14:09;;;;;;;4.90;2.50;;;16.60;99.90;;;;;;5053132;28;20060;-57
2023/08/02 03:16:34;;;;;;;6.43;2.65;;;16.60;99.90;;;;;;5053318;28;20057;-52
2023/08/02 03:19:00;;;;;;;4.88;2.30;;;16.50;99.90;;;;;;5053642;28;20040;-53
2023/08/02 03:21:25;;;;;;;6.25;2.22;;;16.50;99.90;;;;;;5053224;28;20021;-53
2023/08/02 03:23:51;;;;;;;3.85;2.72;;;16.50;99.90;;;;;;5053132;28;20061;-50
2023/08/02 03:26:16;;;;;;;6.82;2.70;;;16.50;99.90;;;;;;5053073;28;20108;-49
2023/08/02 03:28:42;;;;;;;5.82;2.92;;;16.50;99.90;;;;;;5052766;28;20025;-51
2023/08/02 03:31:07;;;;;;;8.25;2.45;;;16.50;99.90;;;;;;5053270;28;20056;-54
2023/08/02 03:33:33;;;;;;;7.15;2.42;;;16.50;99.90;;;;;;5053004;28;20512;-52
2023/08/02 03:35:59;;;;;;;7.65;2.30;;;16.50;99.90;;;;;;5053119;28;20032;-51
2023/08/02 03:38:24;;;;;;;6.25;3.28;;;16.50;99.90;;;;;;5052887;28;20025;-52
2023/08/02 03:40:50;;;;;;;4.05;2.63;;;16.50;99.90;;;;;;5052965;28;20392;-56
2023/08/02 03:43:16;;;;;;;4.57;2.47;;;16.50;99.90;;;;;;5051580;28;20052;-52
2023/08/02 03:45:41;;;;;;;8.15;2.22;;;16.60;99.90;;;;;;5052712;28;20396;-53
2023/08/02 03:48:07;;;;;;;4.40;2.13;;;16.50;99.90;;;;;;5051082;28;20041;-63
2023/08/02 03:50:33;;;;;;;4.68;2.20;;;16.50;99.90;;;;;;5052167;28;20029;-55
2023/08/02 03:52:59;;;;;;;5.82;2.30;;;16.60;99.90;;;;;;5052999;28;20013;-54
2023/08/02 03:55:25;;;;;;;5.63;2.75;;;16.50;99.90;;;;;;5052456;28;20020;-59
2023/08/02 03:57:50;;;;;;;2.65;2.45;;;16.50;99.90;;;;;;5052386;28;20029;-50
2023/08/02 04:00:16;;;;;;;7.20;2.63;;;16.50;99.90;;;;;;5052360;28;20025;-52
2023/08/02 04:02:41;;;;;;;6.28;2.38;;;16.50;99.90;;;;;;5051039;28;20075;-52
2023/08/02 04:05:07;;;;;;;5.00;2.95;;;16.50;99.90;;;;;;5052318;28;20033;-54
2023/08/02 04:07:32;;;;;;;3.38;2.30;;;16.60;99.90;;;;;;5050843;28;20028;-50
2023/08/02 04:09:58;;;;;;;6.68;2.70;;;16.60;99.90;;;;;;5052074;28;20025;-52
2023/08/02 04:12:23;;;;;;;4.13;2.20;;;16.60;99.90;;;;;;5050847;28;20021;-51
2023/08/02 04:14:49;;;;;;;3.60;2.15;;;16.60;99.90;;;;;;5052219;28;20096;-55
2023/08/02 04:17:14;;;;;;;3.75;2.30;;;16.60;99.90;;;;;;5050577;28;20143;-53
2023/08/02 04:19:40;;;;;;;5.13;2.55;;;16.60;99.90;;;;;;5051833;28;20053;-55
2023/08/02 04:22:05;;;;;;;4.85;2.35;;;16.60;99.90;;;;;;5052055;28;20511;-56
2023/08/02 04:24:31;;;;;;;6.10;2.50;;;16.60;99.90;;;;;;5051982;28;20072;-51
2023/08/02 04:26:56;;;;;;;3.38;2.58;;;16.60;99.90;;;;;;5051668;28;20028;-51
2023/08/02 04:29:22;;;;;;;5.28;2.88;;;16.60;99.90;;;;;;5051581;28;20029;-55
2023/08/02 04:31:47;;;;;;;3.63;2.40;;;16.60;99.90;;;;;;5050587;28;20029;-56
2023/08/02 04:34:13;;;;;;;5.40;3.03;;;16.70;99.90;;;;;;5051927;28;20315;-56
2023/08/02 04:36:38;;;;;;;9.70;3.28;;;16.60;99.90;;;;;;5051677;28;20029;-54
2023/08/02 04:39:06;;;;;;;4.80;2.78;;;16.70;99.90;;;;;;5051468;28;20056;-58
2023/08/02 04:41:32;;;;;;;6.82;2.30;;;16.70;99.90;;;;;;5050725;28;20503;-55
2023/08/02 04:43:58;;;;;;;5.28;2.53;;;16.70;99.90;;;;;;5051742;28;20037;-52
2023/08/02 04:46:26;;;;;;;4.22;2.40;;;16.70;99.90;;;;;;5051720;28;20029;-54
2023/08/02 04:48:52;;;;;;;3.30;2.20;;;16.70;99.90;;;;;;5051433;28;20047;-53
2023/08/02 04:51:17;;;;;;;5.22;2.58;;;16.70;99.90;;;;;;5051118;28;20111;-57
2023/08/02 04:53:43;;;;;;;9.13;3.50;;;16.70;99.90;;;;;;5051451;28;20035;-56
2023/08/02 04:56:09;;;;;;;5.90;3.05;;;16.70;99.90;;;;;;5051545;28;20021;-59
2023/08/02 04:58:35;;;;;;;6.80;2.65;;;16.70;99.90;;;;;;5050931;28;20021;-55
2023/08/02 05:01:02;;;;;;;6.55;3.33;;;16.70;99.90;;;;;;5051198;28;20076;-55
2023/08/02 05:03:28;;;;;;;5.95;2.80;;;16.70;99.90;;;;;;5051501;28;20025;-56
2023/08/02 05:05:58;;;;;;;7.60;3.20;;;16.70;99.90;;;;;;5051839;28;20147;-59
2023/08/02 05:08:24;;;;;;;7.80;3.40;;;16.70;99.90;;;;;;5049660;28;20028;-50
2023/08/02 05:10:49;;;;;;;7.95;2.78;;;16.70;99.90;;;;;;5051457;28;20101;-56
2023/08/02 05:13:15;;;;;;;6.93;2.90;;;16.70;99.90;;;;;;5051499;28;20025;-54
2023/08/02 05:15:40;;;;;;;8.07;3.05;;;16.70;99.90;;;;;;5051236;28;20025;-55
2023/08/02 05:18:06;;;;;;;6.22;3.95;;;16.60;99.90;;;;;;5051132;28;20063;-56
2023/08/02 05:20:32;;;;;;;5.55;2.65;;;16.70;99.90;;;;;;5051167;28;20357;-55
2023/08/02 05:22:58;;;;;;;7.60;3.08;;;16.60;99.90;;;;;;5051204;28;20028;-57
2023/08/02 05:25:31;;;;;;;5.93;3.20;;;16.70;99.90;;;;;;5051409;28;20052;-57
2023/08/02 05:27:57;;;;;;;4.70;2.90;;;16.70;99.90;;;;;;5049794;28;20025;-56
2023/08/02 05:30:22;;;;;;;8.18;3.45;;;16.70;99.90;;;;;;5051032;28;20499;-57
2023/08/02 05:32:48;;;;;;;6.05;3.13;;;16.70;99.90;;;;;;5051165;28;20025;-60
2023/08/02 05:35:14;;;;;;;9.18;3.60;;;16.60;99.90;;;;;;5050747;28;20078;-56
2023/08/02 05:37:40;;;;;;;6.90;3.63;;;16.70;99.90;;;;;;5050850;28;20374;-56
2023/08/02 05:40:06;;;;;;;8.13;3.40;;;16.70;99.90;;;;;;5051022;28;20052;-53
2023/08/02 05:42:32;;;;;;;5.15;3.25;;;16.70;99.90;;;;;;5050959;28;20500;-56
2023/08/02 05:44:57;;;;;;;6.55;2.92;;;16.70;99.90;;;;;;5051084;28;20124;-55
2023/08/02 05:47:23;;;;;;;5.63;3.38;;;16.70;99.90;;;;;;5050788;28;20104;-58
2023/08/02 05:49:48;;;;;;;10.02;3.80;;;16.70;99.90;;;;;;5050654;28;20033;-56
2023/08/02 05:52:14;;;;;;;5.80;3.20;;;16.70;99.90;;;;;;5050650;28;20104;-51
2023/08/02 05:54:40;;;;;;;5.90;4.03;;;16.70;99.90;;;;;;5050774;28;20116;-56
2023/08/02 05:57:07;;;;;;;6.70;3.90;;;16.70;99.90;;;;;;5050756;28;20092;-57
2023/08/02 05:59:33;;;;;;;5.53;3.03;;;16.70;99.90;;;;;;5050944;28;20029;-52
2023/08/02 06:01:59;;;;;;;6.28;3.30;;;16.70;99.90;;;;;;5051060;28;20066;-55
2023/08/02 06:04:24;;;;;;;6.80;3.58;;;16.70;99.90;;;;;;5051096;28;20374;-55
2023/08/02 06:06:50;;;;;;;15.43;4.38;;;16.70;99.90;;;;;;5050900;28;20034;-57
2023/08/02 06:09:16;;;;;;;7.57;3.53;;;16.60;99.90;;;;;;5050431;28;20029;-56
2023/08/02 06:11:41;;;;;;;6.82;4.18;;;16.60;99.90;;;;;;5053136;28;20480;-58
2023/08/02 06:14:07;;;;;;;6.78;3.78;;;16.50;99.90;;;;;;5053492;28;20112;-54
2023/08/02 06:16:32;;;;;;;11.07;4.53;;;16.40;99.90;;;;;;5054709;28;20506;-53
2023/08/02 06:18:58;;;;;;;6.53;4.32;;;16.40;99.90;;;;;;5052885;28;20039;-57
2023/08/02 06:21:23;;;;;;;6.43;4.25;;;16.40;99.90;;;;;;5054539;28;20029;-54
2023/08/02 06:23:49;;;;;;;7.78;4.40;;;16.40;99.90;;;;;;5053111;28;20021;-56
2023/08/02 06:26:15;;;;;;;6.13;4.32;;;16.30;99.90;;;;;;5054465;28;20087;-54
2023/08/02 06:28:41;;;;;;;7.72;4.70;;;16.30;99.90;;;;;;5053970;28;20029;-55
2023/08/02 06:31:06;;;;;;;7.60;5.13;;;16.30;99.90;;;;;;5055016;28;20025;-57
2023/08/02 06:33:32;;;;;;;9.30;4.63;;;16.30;99.90;;;;;;5055463;28;20017;-59
2023/08/02 06:35:57;;;;;;;15.32;4.95;;;16.30;99.90;;;;;;5054977;28;20444;-54
2023/08/02 06:38:23;;;;;;;6.60;3.83;;;16.30;99.90;;;;;;5053591;28;20423;-56
2023/08/02 06:40:48;;;;;;;5.18;3.83;;;16.20;99.90;;;;;;5056021;28;20102;-58
2023/08/02 06:43:14;;;;;;;8.18;3.67;;;16.20;99.90;;;;;;5055938;28;20033;-54
2023/08/02 06:45:45;;;;;;;10.68;3.63;;;16.20;99.90;;;;;;5055555;28;20064;-53
2023/08/02 06:48:11;;;;;;;4.80;3.35;;;16.10;99.90;;;;;;5053729;28;20025;-52
2023/08/02 06:50:37;;;;;;;6.30;3.47;;;16.10;99.90;;;;;;5053551;28;20721;-55
2023/08/02 06:53:04;;;;;;;4.65;3.40;;;16.10;99.90;;;;;;5054265;28;20068;-57
2023/08/02 06:55:29;;;;;;;8.13;3.80;;;16.10;99.90;;;;;;5053946;28;20013;-54
2023/08/02 06:57:55;;;;;;;3.80;3.30;;;16.10;99.90;;;;;;5052753;28;20392;-53
2023/08/02 07:00:20;;;;;;;6.88;3.53;;;16.10;99.90;;;;;;5053728;28;20021;-51
2023/08/02 07:02:46;;;;;;;6.63;3.83;;;16.10;99.90;;;;;;5053798;28;20572;-55
2023/08/02 07:05:11;;;;;;;7.22;3.92;;;16.10;99.90;;;;;;5053694;28;20442;-57
2023/08/02 07:07:37;;;;;;;6.50;3.75;;;16.10;99.90;;;;;;5052638;28;20072;-56
2023/08/02 07:10:02;;;;;;;4.55;3.60;;;16.10;99.90;;;;;;5053211;28;20033;-52
2023/08/02 07:12:28;;;;;;;4.13;3.33;;;16.10;99.90;;;;;;5053272;28;20028;-52
2023/08/02 07:14:53;;;;;;;6.13;3.38;;;16.20;99.90;;;;;;5053626;28;20037;-58
2023/08/02 07:17:19;;;;;;;6.22;3.78;;;16.10;99.90;;;;;;5052857;28;20056;-55
2023/08/02 07:19:44;;;;;;;4.82;3.72;;;16.10;99.90;;;;;;5053111;28;20028;-55
2023/08/02 07:22:13;;;;;;;7.57;4.10;;;16.20;99.90;;;;;;5053309;28;20040;-56
2023/08/02 07:24:38;;;;;;;7.80;3.95;;;16.20;99.90;;;;;;5053497;28;20021;-52
2023/08/02 07:27:04;;;;;;;5.97;3.13;;;16.20;99.90;;;;;;5053010;28;20041;-56
2023/08/02 07:29:30;;;;;;;3.85;3.45;;;16.20;99.90;;;;;;5052861;28;20058;-56
2023/08/02 07:31:55;;;;;;;6.00;3.15;;;16.20;99.90;;;;;;5053319;28;20029;-50
2023/08/02 07:34:21;;;;;;;4.10;3.17;;;16.20;99.90;;;;;;5053127;28;20484;-52
2023/08/02 07:36:46;;;;;;;7.78;3.53;;;16.30;99.90;;;;;;5052999;28;20021;-60
2023/08/02 07:39:12;;;;;;;5.60;4.03;;;16.30;99.90;;;;;;5052584;28;20032;-53
2023/08/02 07:41:38;;;;;;;4.32;3.13;;;16.40;99.90;;;;;;5052609;28;20412;-51
2023/08/02 07:44:03;;;;;;;4.00;3.60;;;16.40;99.90;;;;;;5053043;28;20024;-53
2023/08/02 07:46:29;;;;;;;5.15;3.28;;;16.50;99.90;;;;;;5052774;28;20056;-59
2023/08/02 07:48:55;;;;;;;6.03;3.30;;;16.50;99.90;;;;;;5054077;28;20103;-54
2023/08/02 07:51:20;;;;;;;5.13;3.78;;;16.50;99.90;;;;;;5073340;28;20025;-51
2023/08/02 07:53:48;;;;;;;4.38;3.42;;;16.50;99.90;;;;;;5064326;28;20370;-52
2023/08/02 07:56:13;;;;;;;6.55;3.72;;;16.50;99.90;;;;;;5052695;28;20017;-54
2023/08/02 07:58:39;;;;;;;4.35;3.45;;;16.60;99.90;;;;;;5052250;28;20538;-54
2023/08/02 08:01:06;;;;;;;5.18;3.78;;;16.60;99.90;;;;;;5052913;28;20387;-53
2023/08/02 08:03:31;;;;;;;4.38;3.88;;;16.60;99.90;;;;;;5052718;28;20025;-56
2023/08/02 08:05:57;;;;;;;4.40;3.85;;;16.60;99.90;;;;;;5043004;28;20574;-55
2023/08/02 08:08:22;;;;;;;3.92;3.20;;;16.60;99.90;;;;;;5072099;28;20048;-54
2023/08/02 08:10:52;;;;;;;4.78;3.72;;;16.60;99.90;;;;;;5072275;28;20032;-53
2023/08/02 08:13:17;;;;;;;9.00;3.80;;;16.60;99.90;;;;;;5072150;28;20107;-53
2023/08/02 08:15:43;;;;;;;7.10;3.88;;;16.70;99.90;;;;;;5054378;28;20067;-53
2023/08/02 08:18:09;;;;;;;6.43;3.35;;;16.70;99.90;;;;;;5072009;28;20036;-50
2023/08/02 08:20:34;;;;;;;7.15;3.17;;;16.70;99.90;;;;;;5072180;28;20021;-51
2023/08/02 08:23:00;;;;;;;5.25;3.83;;;16.70;99.90;;;;;;5054307;28;20020;-56
2023/08/02 08:25:25;;;;;;;6.35;3.30;;;16.80;99.90;;;;;;5072160;28;20047;-53
2023/08/02 08:27:51;;;;;;;6.78;3.80;;;16.80;99.90;;;;;;5071817;28;20100;-53
2023/08/02 08:30:16;;;;;;;7.30;4.00;;;16.90;99.90;;;;;;5071986;28;20084;-54
2023/08/02 08:32:42;;;;;;;6.72;3.80;;;16.80;99.90;;;;;;5072163;28;20097;-55
2023/08/02 08:35:09;;;;;;;5.80;3.40;;;17.00;99.90;;;;;;5071760;28;20099;-56
2023/08/02 08:37:35;;;;;;;4.47;3.30;;;17.00;99.90;;;;;;5072059;28;20054;-59
2023/08/02 08:40:01;;;;;;;4.50;3.08;;;17.00;99.90;;;;;;5071937;28;20445;-54
2023/08/02 08:42:26;;;;;;;6.25;3.20;;;17.00;99.90;;;;;;5071999;28;20020;-54
2023/08/02 08:44:55;;;;;;;6.20;4.00;;;17.10;99.90;;;;;;5054062;28;20036;-55
2023/08/02 08:47:21;;;;;;;3.53;2.97;;;17.00;99.90;;;;;;5056973;28;20024;-53
2023/08/02 08:49:47;;;;;;;3.90;3.58;;;17.00;99.90;;;;;;5051744;28;20064;-60
2023/08/02 08:52:14;;;;;;;5.47;3.38;;;17.00;99.90;;;;;;5051531;28;20021;-54
2023/08/02 08:54:43;;;;;;;5.40;3.60;;;16.90;99.90;;;;;;5064433;28;20082;-56
2023/08/02 08:57:09;;;;;;;4.65;3.38;;;16.90;99.90;;;;;;5065528;28;20025;-52
2023/08/02 08:59:36;;;;;;;7.45;3.47;;;16.90;99.90;;;;;;5042554;28;20055;-53
2023/08/02 09:02:03;;;;;;;8.57;3.78;;;16.90;99.90;;;;;;5051275;28;20020;-51
2023/08/02 09:04:30;;;;;;;3.25;2.95;;;16.90;99.90;;;;;;5051429;28;20484;-53
2023/08/02 09:06:55;;;;;;;4.05;3.22;;;16.80;99.90;;;;;;5069842;28;20028;-56
2023/08/02 09:09:21;;;;;;;3.38;2.90;;;16.90;99.90;;;;;;5066546;28;20078;-55
2023/08/02 09:11:47;;;;;;;3.78;3.28;;;16.90;99.90;;;;;;5050733;28;20033;-54
2023/08/02 09:14:14;;;;;;;6.95;3.17;;;16.90;99.90;;;;;;5063197;28;20032;-51
2023/08/02 09:16:59;;;;;;;4.30;2.85;;;16.90;99.90;;;;;;5056673;28;20047;-48
2023/08/02 09:19:29;;;;;;;4.22;3.72;;;16.90;99.90;;;;;;5035557;22;20520;-52
2023/08/02 09:22:09;;;;;;;4.45;3.40;;;16.90;99.90;;;;;;5011380;28;20029;-52
2023/08/02 09:24:36;;;;;;;5.95;2.65;;;16.90;99.90;;;;;;5011586;28;20030;-50
2023/08/02 09:27:04;;;;;;;8.85;3.13;;;17.00;99.90;;;;;;5010852;28;20049;-50
2023/08/02 09:29:44;;;;;;;3.58;2.42;;;17.00;99.90;;;;;;5011387;28;20168;-51
2023/08/02 09:32:10;;;;;;;3.33;2.67;;;17.00;99.90;;;;;;5011061;28;20493;-50
2023/08/02 09:34:49;;;;;;;8.38;2.83;;;17.00;99.90;;;;;;5010727;28;20126;-48
2023/08/02 09:37:16;;;;;;;4.25;2.80;;;17.10;99.90;;;;;;4994152;28;20022;-56
2023/08/02 09:39:49;;;;;;;4.07;2.90;;;17.10;99.90;;;;;;5011484;28;20026;-53
2023/08/02 09:42:17;;;;;;;3.00;2.80;;;17.10;99.90;;;;;;5011924;28;20524;-55
2023/08/02 09:44:52;;;;;;;2.90;2.70;;;17.20;99.90;;;;;;4994304;28;20038;-54
2023/08/02 09:47:18;;;;;;;3.67;3.05;;;17.20;99.90;;;;;;5014550;28;20381;-46
2023/08/02 09:49:43;;;;;;;9.40;7.65;;;17.20;99.90;;;;;;5015546;28;20032;-49
2023/08/02 09:52:09;;;;;;;4.88;3.72;;;17.30;99.90;;;;;;5015160;28;20026;-49
2023/08/02 09:54:35;;;;;;;3.47;3.17;;;17.30;99.90;;;;;;5015277;28;20028;-50
2023/08/02 09:57:02;;;;;;;5.38;2.88;;;17.50;99.90;;;;;;5014495;28;20031;-49
2023/08/02 09:59:29;;;;;;;3.72;3.25;;;17.30;99.90;;;;;;4996290;28;20045;-45
2023/08/02 10:01:56;;;;;;;3.60;3.22;;;17.40;99.90;;;;;;5012087;28;20040;-47
2023/08/02 10:04:26;;;;;;;5.35;3.25;;;17.40;99.90;;;;;;4997846;28;20101;-52
2023/08/02 10:07:07;;;;;;;3.58;3.22;;;17.40;99.90;;;;;;5014905;28;20025;-56
2023/08/02 10:09:34;;;;;;;3.70;3.33;;;17.50;99.90;;;;;;5014708;28;20374;-52
2023/08/02 10:12:11;;;;;;;5.40;3.28;;;17.50;99.90;;;;;;5014764;28;20038;-51
2023/08/02 10:14:36;;;;;;;5.35;3.80;;;17.50;99.90;;;;;;5008055;28;20400;-51
2023/08/02 10:17:02;;;;;;;5.25;3.35;;;17.50;99.90;;;;;;4995145;28;20025;-53
2023/08/02 10:19:30;;;;;;;4.65;3.60;;;17.50;99.90;;;;;;4994821;28;20045;-54
2023/08/02 10:22:00;;;;;;;5.55;3.85;;;17.50;99.90;;;;;;4995007;28;20035;-53
2023/08/02 10:24:26;;;;;;;4.00;3.20;;;17.60;99.90;;;;;;4995061;28;20031;-51
2023/08/02 10:26:56;;;;;;;4.75;3.88;;;17.60;99.90;;;;;;5002732;28;20034;-47
2023/08/02 10:29:25;;;;;;;4.18;3.75;;;17.70;99.90;;;;;;5014471;28;20029;-49
2023/08/02 10:31:51;;;;;;;3.65;3.35;;;17.90;99.90;;;;;;5014400;28;20520;-52
2023/08/02 10:34:34;;;;;;;3.45;3.15;;;17.90;99.90;;;;;;5014398;28;20097;-48
2023/08/02 10:37:00;;;;;;;3.88;3.03;;;18.00;99.90;;;;;;5008766;28;20485;-48
2023/08/02 10:39:47;;;;;;;3.90;3.45;;;18.10;99.90;;;;;;5014114;28;20026;-48
2023/08/02 10:42:20;;;;;;;4.63;2.90;;;18.20;99.90;;;;;;5014157;28;20114;-47
2023/08/02 10:45:12;;;;;;;2.90;2.70;;;18.20;99.90;;;;;;4994749;28;20056;-47
2023/08/02 10:47:39;;;;;;;4.97;2.95;;;18.20;99.90;;;;;;4993695;28;20089;-53
2023/08/02 10:50:05;;;;;;;4.95;3.35;;;18.20;99.90;;;;;;4993794;28;20019;-50
2023/08/02 10:52:31;;;;;;;3.40;2.85;;;18.20;99.90;;;;;;5012407;28;20026;-50
2023/08/02 10:55:07;;;;;;;6.40;3.35;;;18.40;99.90;;;;;;5014084;28;20029;-51
2023/08/02 10:57:34;;;;;;;5.47;3.88;;;18.40;99.90;;;;;;5013106;28;20025;-47
2023/08/02 10:59:59;;;;;;;6.55;3.42;;;18.40;99.90;;;;;;5013934;28;20033;-50
2023/08/02 11:02:25;;;;;;;5.25;3.78;;;18.40;99.90;;;;;;5013893;28;20026;-48
2023/08/02 11:04:52;;;;;;;10.60;7.63;;;18.40;99.90;;;;;;5011666;28;20026;-50
2023/08/02 11:07:21;;;;;;;29.33;22.20;;;18.40;99.90;;;;;;5014071;28;20068;-50
2023/08/02 11:09:48;;;;;;;6.22;3.88;;;18.30;99.90;;;;;;5013415;28;20092;-49
2023/08/02 11:12:18;;;;;;;3.70;3.40;;;18.30;99.90;;;;;;5013077;28;20022;-49
2023/08/02 11:14:46;;;;;;;4.22;3.30;;;18.30;99.90;;;;;;4985095;28;20029;-52
2023/08/02 11:17:16;;;;;;;5.20;3.55;;;18.30;99.90;;;;;;5013293;28;20046;-49
2023/08/02 11:19:49;;;;;;;3.08;2.88;;;18.30;99.90;;;;;;4996816;28;20049;-48
2023/08/02 11:22:15;;;;;;;4.18;3.03;;;18.30;99.90;;;;;;5005370;28;20070;-52
2023/08/02 11:24:46;;;;;;;4.50;3.10;;;18.30;99.90;;;;;;5013611;28;20068;-48
2023/08/02 11:27:26;;;;;;;3.90;3.15;;;18.30;99.90;;;;;;4995846;28;20191;-51
2023/08/02 11:30:05;;;;;;;9.85;3.45;;;18.30;99.90;;;;;;5013575;28;20030;-45
2023/08/02 11:32:32;;;;;;;3.75;3.35;;;18.40;99.90;;;;;;4995430;28;20449;-49
2023/08/02 11:34:58;;;;;;;3.47;2.67;;;18.40;99.90;;;;;;5013230;28;20363;-44
2023/08/02 11:37:24;;;;;;;3.90;2.60;;;18.40;99.90;;;;;;5013010;28;20394;-48
2023/08/02 11:39:51;;;;;;;2.60;2.40;;;18.40;99.90;;;;;;5012522;28;20490;-47
2023/08/02 11:42:17;;;;;;;3.53;2.83;;;18.40;99.90;;;;;;4995405;28;20124;-46
2023/08/02 11:44:44;;;;;;;2.83;2.25;;;18.50;99.90;;;;;;5013676;28;20110;-43
2023/08/02 11:47:10;;;;;;;2.67;2.47;;;18.50;99.90;;;;;;5013463;28;20034;-45
2023/08/02 11:49:55;;;;;;;2.40;2.20;;;18.50;99.90;;;;;;5012979;28;20105;-43
2023/08/02 11:52:32;;;;;;;2.20;2.05;;;18.60;99.90;;;;;;5013366;28;20033;-48
2023/08/02 11:54:59;;;;;;;2.67;2.40;;;18.60;99.90;;;;;;4995928;28;20587;-45
2023/08/02 11:57:26;;;;;;;3.10;2.38;;;18.60;99.90;;;;;;5013281;28;20034;-44
2023/08/02 11:59:56;;;;;;;3.25;2.08;;;18.60;99.90;;;;;;5012535;28;20076;-50
2023/08/02 12:02:32;;;;;;;3.30;1.92;;;18.60;99.90;;;;;;5012409;28;20258;-47
2023/08/02 12:05:05;;;;;;;1.80;1.70;;;18.60;99.90;;;;;;5012906;28;20383;-45
2023/08/02 12:07:33;;;;;;;3.83;2.25;;;18.60;99.90;;;;;;5012716;28;20029;-46
2023/08/02 12:10:01;;;;;;;2.22;1.75;;;18.70;99.90;;;;;;5011861;28;20054;-42
2023/08/02 12:12:34;;;;;;;2.28;2.08;;;18.70;99.90;;;;;;5012224;28;20017;-48
2023/08/02 12:15:10;;;;;;;1.67;1.58;;;18.70;99.90;;;;;;5013119;28;20064;-44
2023/08/02 12:17:35;;;;;;;2.00;1.90;;;18.70;99.90;;;;;;4995076;28;20444;-44
2023/08/02 12:20:01;;;;;;;2.35;2.10;;;18.80;99.90;;;;;;5012089;28;20030;-44
2023/08/02 12:22:26;;;;;;;2.17;1.83;;;18.80;99.90;;;;;;5011830;28;20054;-43
2023/08/02 12:25:05;;;;;;;4.32;2.17;;;18.90;99.90;;;;;;4994828;28;20014;-44
2023/08/02 12:27:31;;;;;;;65.82;43.60;;;18.90;99.90;;;;;;5012157;28;20033;-51
2023/08/02 12:30:16;;;;;;;60.83;42.88;;;18.90;99.90;;;;;;5011938;28;20026;-45
2023/08/02 12:32:42;;;;;;;2.28;2.08;;;18.90;99.90;;;;;;5012126;28;20557;-47
2023/08/02 12:35:09;;;;;;;2.20;1.58;;;18.90;99.90;;;;;;5012249;28;20109;-49
2023/08/02 12:37:35;;;;;;;1.90;1.80;;;19.00;99.90;;;;;;5012020;28;20097;-45
2023/08/02 12:40:01;;;;;;;2.15;1.92;;;19.00;99.90;;;;;;5011635;28;20108;-45
2023/08/02 12:42:27;;;;;;;2.42;2.00;;;19.00;99.90;;;;;;5012561;28;20025;-46
2023/08/02 12:44:52;;;;;;;3.50;2.50;;;19.10;99.90;;;;;;5010559;28;20033;-45